createdAt,value
2018-02-01T00:00:40.305Z,7.17
2018-02-01T00:01:40.298Z,7.09
2018-02-01T00:02:40.294Z,7.07
2018-02-01T00:03:40.282Z,6.98
2018-02-01T00:04:40.276Z,6.89
2018-02-01T00:05:40.273Z,6.95
2018-02-01T00:06:40.268Z,6.95
2018-02-01T00:07:40.259Z,6.94
2018-02-01T00:08:40.254Z,6.84
2018-02-01T00:09:40.246Z,6.79
2018-02-01T00:10:40.242Z,6.71
2018-02-01T00:11:40.234Z,6.62
2018-02-01T00:12:40.229Z,6.73
2018-02-01T00:13:40.227Z,6.79
2018-02-01T00:14:40.216Z,6.95
2018-02-01T00:15:40.209Z,6.94
2018-02-01T00:16:40.204Z,6.72
2018-02-01T00:17:40.424Z,6.59
2018-02-01T00:18:40.192Z,6.56
2018-02-01T00:19:40.184Z,6.63
2018-02-01T00:20:40.178Z,6.73
2018-02-01T00:21:40.172Z,6.72
2018-02-01T00:22:40.166Z,6.69
2018-02-01T00:23:40.159Z,6.83
2018-02-01T00:24:40.156Z,6.81
2018-02-01T00:25:40.148Z,6.69
2018-02-01T00:26:40.140Z,6.76
2018-02-01T00:27:40.135Z,6.65
2018-02-01T00:28:40.127Z,6.72
2018-02-01T00:29:40.120Z,6.62
2018-02-01T00:30:40.113Z,6.66
2018-02-01T00:31:40.107Z,6.71
2018-02-01T00:32:40.103Z,6.69
2018-02-01T00:33:40.095Z,6.63
2018-02-01T00:34:40.087Z,6.68
2018-02-01T00:35:40.080Z,6.72
2018-02-01T00:36:40.073Z,6.69
2018-02-01T00:37:40.077Z,6.68
2018-02-01T00:38:40.071Z,6.53
2018-02-01T00:39:40.053Z,6.56
2018-02-01T00:40:40.052Z,6.68
2018-02-01T00:41:40.051Z,6.72
2018-02-01T00:42:40.037Z,6.54
2018-02-01T00:43:40.035Z,6.69
2018-02-01T00:44:40.021Z,6.63
2018-02-01T00:45:40.027Z,6.62
2018-02-01T00:46:40.010Z,6.56
2018-02-01T00:47:40.003Z,6.63
2018-02-01T00:48:48.696Z,6.66
2018-02-01T00:50:33.443Z,6.51
2018-02-01T00:51:33.416Z,6.58
2018-02-01T00:52:33.419Z,6.62
2018-02-01T00:53:33.418Z,6.66
2018-02-01T00:54:33.355Z,6.65
2018-02-01T00:55:33.342Z,6.66
2018-02-01T00:56:33.338Z,6.58
2018-02-01T00:57:33.325Z,6.66
2018-02-01T00:58:33.320Z,6.73
2018-02-01T00:59:33.315Z,6.71
2018-02-01T01:00:33.306Z,6.76
2018-02-01T01:01:42.066Z,6.69
2018-02-01T01:03:35.963Z,6.56
2018-02-01T01:04:26.760Z,6.66
2018-02-01T01:05:26.722Z,6.62
2018-02-01T01:06:26.700Z,6.58
2018-02-01T01:07:26.790Z,6.58
2018-02-01T01:08:26.655Z,6.59
2018-02-01T01:09:26.642Z,6.62
2018-02-01T01:10:26.636Z,6.65
2018-02-01T01:11:26.625Z,6.68
2018-02-01T01:12:26.620Z,6.58
2018-02-01T01:13:26.615Z,6.73
2018-02-01T01:14:26.605Z,6.62
2018-02-01T01:15:26.600Z,6.56
2018-02-01T01:16:26.594Z,6.61
2018-02-01T01:17:26.592Z,6.63
2018-02-01T01:18:26.582Z,6.69
2018-02-01T01:19:26.576Z,6.65
2018-02-01T01:20:26.571Z,6.71
2018-02-01T01:21:26.563Z,6.69
2018-02-01T01:22:26.556Z,6.69
2018-02-01T01:23:26.559Z,6.76
2018-02-01T01:24:26.544Z,6.54
2018-02-01T01:25:26.541Z,6.59
2018-02-01T01:26:26.535Z,6.69
2018-02-01T01:27:26.525Z,6.61
2018-02-01T01:28:26.518Z,6.66
2018-02-01T01:29:26.511Z,6.68
2018-02-01T01:30:26.507Z,6.71
2018-02-01T01:31:26.505Z,6.53
2018-02-01T01:32:26.493Z,6.63
2018-02-01T01:33:26.493Z,6.72
2018-02-01T01:34:26.487Z,6.58
2018-02-01T01:35:26.474Z,6.50
2018-02-01T01:36:26.469Z,6.61
2018-02-01T01:37:26.463Z,6.69
2018-02-01T01:38:26.455Z,6.68
2018-02-01T01:39:26.473Z,6.69
2018-02-01T01:40:26.443Z,6.61
2018-02-01T01:41:26.439Z,6.53
2018-02-01T01:42:26.431Z,6.69
2018-02-01T01:43:26.424Z,6.66
2018-02-01T01:44:26.416Z,6.65
2018-02-01T01:46:57.587Z,6.62
2018-02-01T01:47:56.238Z,6.62
2018-02-01T01:49:40.934Z,6.53
2018-02-01T01:50:40.869Z,6.50
2018-02-01T01:51:40.844Z,6.68
2018-02-01T01:52:40.817Z,6.58
2018-02-01T01:53:40.832Z,6.62
2018-02-01T01:54:40.774Z,6.54
2018-02-01T01:55:40.770Z,6.65
2018-02-01T01:56:40.765Z,6.66
2018-02-01T01:57:40.755Z,6.63
2018-02-01T01:58:40.762Z,6.54
2018-02-01T01:59:40.743Z,6.56
2018-02-01T02:00:40.773Z,6.53
2018-02-01T02:01:40.768Z,6.56
2018-02-01T02:02:40.724Z,6.65
2018-02-01T02:03:40.715Z,6.61
2018-02-01T02:04:40.715Z,6.68
2018-02-01T02:05:40.702Z,6.48
2018-02-01T02:06:40.696Z,6.65
2018-02-01T02:07:40.694Z,6.59
2018-02-01T02:08:40.687Z,6.33
2018-02-01T02:09:40.678Z,6.43
2018-02-01T02:10:40.674Z,6.38
2018-02-01T02:11:40.664Z,6.53
2018-02-01T02:12:40.658Z,6.35
2018-02-01T02:13:40.653Z,6.30
2018-02-01T02:14:40.644Z,6.46
2018-02-01T02:15:40.639Z,6.46
2018-02-01T02:16:40.643Z,6.53
2018-02-01T02:17:40.717Z,6.50
2018-02-01T02:18:40.616Z,6.53
2018-02-01T02:19:40.612Z,6.41
2018-02-01T02:20:40.603Z,6.35
2018-02-01T02:21:40.610Z,6.38
2018-02-01T02:22:40.599Z,6.43
2018-02-01T02:23:40.592Z,6.43
2018-02-01T02:24:40.588Z,6.33
2018-02-01T02:25:40.571Z,6.36
2018-02-01T02:26:40.564Z,6.36
2018-02-01T02:27:40.559Z,6.47
2018-02-01T02:28:40.551Z,6.54
2018-02-01T02:29:40.545Z,6.44
2018-02-01T02:30:40.543Z,6.46
2018-02-01T02:31:40.535Z,6.16
2018-02-01T02:32:40.525Z,6.35
2018-02-01T02:33:40.523Z,6.40
2018-02-01T02:34:40.512Z,6.48
2018-02-01T02:35:40.507Z,6.47
2018-02-01T02:36:40.500Z,6.43
2018-02-01T02:37:40.497Z,6.43
2018-02-01T02:38:40.486Z,6.19
2018-02-01T02:39:40.483Z,6.29
2018-02-01T02:40:40.474Z,6.41
2018-02-01T02:41:40.467Z,6.46
2018-02-01T02:42:40.459Z,6.35
2018-02-01T02:43:40.453Z,6.33
2018-02-01T02:44:40.447Z,6.40
2018-02-01T02:45:40.442Z,6.32
2018-02-01T02:46:40.434Z,6.14
2018-02-01T02:47:40.430Z,6.30
2018-02-01T02:48:40.421Z,6.40
2018-02-01T02:49:40.416Z,6.28
2018-02-01T02:50:40.408Z,6.36
2018-02-01T02:51:40.402Z,6.43
2018-02-01T02:52:40.391Z,6.18
2018-02-01T02:53:40.387Z,6.38
2018-02-01T02:54:40.380Z,6.40
2018-02-01T02:55:40.380Z,6.36
2018-02-01T02:56:40.367Z,6.33
2018-02-01T02:57:40.360Z,6.26
2018-02-01T02:58:49.078Z,6.25
2018-02-01T03:00:33.807Z,6.32
2018-02-01T03:01:33.805Z,6.26
2018-02-01T03:02:33.735Z,6.36
2018-02-01T03:03:33.803Z,6.38
2018-02-01T03:23:21.501Z,5.96
2018-02-01T03:24:21.514Z,6.01
2018-02-01T03:25:21.540Z,5.96
2018-02-01T03:26:21.500Z,5.95
2018-02-01T03:27:21.435Z,6.00
2018-02-01T03:28:21.423Z,6.01
2018-02-01T03:29:21.414Z,5.89
2018-02-01T03:30:21.403Z,5.88
2018-02-01T03:31:21.397Z,5.88
2018-02-01T03:32:21.384Z,5.85
2018-02-01T03:33:21.379Z,5.95
2018-02-01T03:34:21.374Z,5.93
2018-02-01T03:35:21.364Z,5.91
2018-02-01T03:36:21.351Z,6.00
2018-02-01T03:37:21.345Z,6.01
2018-02-01T03:38:21.336Z,5.93
2018-02-01T03:39:21.328Z,6.03
2018-02-01T03:40:21.320Z,6.06
2018-02-01T03:41:21.313Z,6.06
2018-02-01T03:42:21.309Z,6.03
2018-02-01T03:43:30.112Z,6.21
2018-02-01T03:45:23.837Z,6.16
2018-02-01T03:47:46.833Z,6.09
2018-02-01T03:48:35.852Z,6.04
2018-02-01T03:49:35.721Z,6.13
2018-02-01T03:50:35.743Z,6.04
2018-02-01T03:51:35.663Z,6.13
2018-02-01T03:52:35.655Z,5.92
2018-02-01T03:53:35.646Z,5.95
2018-02-01T03:54:35.643Z,6.00
2018-02-01T03:55:35.634Z,6.09
2018-02-01T03:56:44.394Z,6.14
2018-02-01T03:58:29.162Z,6.13
2018-02-01T03:59:29.096Z,6.14
2018-02-01T04:00:29.040Z,6.00
2018-02-01T04:01:29.064Z,5.98
2018-02-01T04:02:28.994Z,5.93
2018-02-01T04:03:28.976Z,6.00
2018-02-01T04:04:28.984Z,6.04
2018-02-01T04:05:28.962Z,6.16
2018-02-01T04:06:28.961Z,6.09
2018-02-01T04:07:37.704Z,6.18
2018-02-01T04:09:22.564Z,5.96
2018-02-01T04:10:22.317Z,5.89
2018-02-01T04:11:22.329Z,5.95
2018-02-01T04:12:22.302Z,6.03
2018-02-01T04:13:22.443Z,6.06
2018-02-01T04:14:22.288Z,6.03
2018-02-01T04:15:22.284Z,6.28
2018-02-01T04:16:22.278Z,6.21
2018-02-01T04:17:22.269Z,6.10
2018-02-01T04:18:22.265Z,6.19
2018-02-01T04:19:22.253Z,6.29
2018-02-01T04:20:22.246Z,6.28
2018-02-01T04:21:22.242Z,5.91
2018-02-01T04:22:22.243Z,6.00
2018-02-01T04:23:22.229Z,6.00
2018-02-01T04:24:22.219Z,6.10
2018-02-01T04:25:22.214Z,6.10
2018-02-01T04:26:22.206Z,5.98
2018-02-01T04:27:22.206Z,6.04
2018-02-01T04:28:22.199Z,5.93
2018-02-01T04:29:22.188Z,6.07
2018-02-01T04:30:22.197Z,6.11
2018-02-01T04:31:22.299Z,6.00
2018-02-01T04:32:22.227Z,6.04
2018-02-01T04:33:22.242Z,5.85
2018-02-01T04:34:22.295Z,5.89
2018-02-01T04:35:22.184Z,5.88
2018-02-01T04:36:22.226Z,5.88
2018-02-01T04:37:22.246Z,5.93
2018-02-01T04:38:22.245Z,5.92
2018-02-01T04:39:22.204Z,5.95
2018-02-01T04:40:22.238Z,6.06
2018-02-01T04:41:22.254Z,5.92
2018-02-01T04:43:43.204Z,6.06
2018-02-01T04:44:43.304Z,5.98
2018-02-01T04:45:43.237Z,5.96
2018-02-01T04:46:43.277Z,6.01
2018-02-01T04:47:43.172Z,6.07
2018-02-01T04:48:43.162Z,6.03
2018-02-01T04:49:43.131Z,5.88
2018-02-01T04:50:43.264Z,5.73
2018-02-01T04:51:43.215Z,5.77
2018-02-01T04:52:43.115Z,5.68
2018-02-01T04:53:43.210Z,5.71
2018-02-01T04:54:43.173Z,5.78
2018-02-01T04:55:43.173Z,5.96
2018-02-01T04:56:51.930Z,5.95
2018-02-01T04:58:36.654Z,5.83
2018-02-01T04:59:36.660Z,5.68
2018-02-01T05:00:36.830Z,5.82
2018-02-01T05:01:36.636Z,5.68
2018-02-01T05:02:36.601Z,5.67
2018-02-01T05:03:36.584Z,5.67
2018-02-01T05:04:36.535Z,5.50
2018-02-01T05:05:36.680Z,5.64
2018-02-01T05:06:36.626Z,5.73
2018-02-01T05:07:36.560Z,5.74
2018-02-01T05:08:36.505Z,5.60
2018-02-01T05:09:36.494Z,5.66
2018-02-01T05:10:36.472Z,5.64
2018-02-01T05:11:36.459Z,5.73
2018-02-01T05:12:36.452Z,5.57
2018-02-01T05:13:36.447Z,5.56
2018-02-01T05:14:36.443Z,5.71
2018-02-01T05:15:36.434Z,5.77
2018-02-01T05:16:36.473Z,5.70
2018-02-01T05:17:36.423Z,5.64
2018-02-01T05:18:36.411Z,5.70
2018-02-01T05:19:36.424Z,5.64
2018-02-01T05:20:36.395Z,5.63
2018-02-01T05:21:36.427Z,5.67
2018-02-01T05:22:36.396Z,5.68
2018-02-01T05:23:36.388Z,5.71
2018-02-01T05:24:36.379Z,5.67
2018-02-01T05:25:36.364Z,5.70
2018-02-01T05:26:36.356Z,5.67
2018-02-01T05:27:36.350Z,5.74
2018-02-01T05:28:36.341Z,5.60
2018-02-01T05:29:36.336Z,5.73
2018-02-01T05:30:36.398Z,5.59
2018-02-01T05:31:36.341Z,5.53
2018-02-01T05:32:36.320Z,5.67
2018-02-01T05:33:36.307Z,5.64
2018-02-01T05:34:36.304Z,5.52
2018-02-01T05:35:36.295Z,5.60
2018-02-01T05:36:36.290Z,5.60
2018-02-01T05:37:36.283Z,5.49
2018-02-01T05:38:36.271Z,5.63
2018-02-01T05:39:36.277Z,5.41
2018-02-01T05:40:36.257Z,5.53
2018-02-01T05:41:36.251Z,5.46
2018-02-01T05:42:36.244Z,5.49
2018-02-01T05:43:36.241Z,5.49
2018-02-01T05:44:36.231Z,5.63
2018-02-01T05:45:36.355Z,5.56
2018-02-01T05:46:36.228Z,5.52
2018-02-01T05:47:36.209Z,5.59
2018-02-01T05:48:36.203Z,5.49
2018-02-01T05:49:36.204Z,5.57
2018-02-01T05:50:36.188Z,5.48
2018-02-01T05:51:36.182Z,5.50
2018-02-01T05:52:36.175Z,5.41
2018-02-01T05:53:36.171Z,5.60
2018-02-01T05:54:36.228Z,5.40
2018-02-01T05:55:36.151Z,5.37
2018-02-01T05:56:36.150Z,5.46
2018-02-01T05:57:36.142Z,5.43
2018-02-01T05:58:36.209Z,5.32
2018-02-01T05:59:36.125Z,5.43
2018-02-01T06:00:36.124Z,5.40
2018-02-01T06:01:36.125Z,5.38
2018-02-01T06:02:36.108Z,5.35
2018-02-01T06:03:36.096Z,5.38
2018-02-01T06:04:36.090Z,5.31
2018-02-01T06:05:36.078Z,5.25
2018-02-01T06:06:36.080Z,5.30
2018-02-01T06:07:36.072Z,5.46
2018-02-01T06:08:36.153Z,5.37
2018-02-01T06:09:36.089Z,5.43
2018-02-01T06:10:36.058Z,5.35
2018-02-01T06:11:36.042Z,5.40
2018-02-01T06:12:36.029Z,5.34
2018-02-01T06:13:36.026Z,5.46
2018-02-01T06:14:36.022Z,5.41
2018-02-01T06:15:36.024Z,5.52
2018-02-01T06:16:36.005Z,5.40
2018-02-01T06:17:35.993Z,5.48
2018-02-01T06:18:35.995Z,5.41
2018-02-01T06:19:35.982Z,5.46
2018-02-01T06:20:35.978Z,5.35
2018-02-01T06:21:35.964Z,5.31
2018-02-01T06:22:35.955Z,5.46
2018-02-01T06:23:35.956Z,5.49
2018-02-01T06:24:35.940Z,5.50
2018-02-01T06:25:35.937Z,5.52
2018-02-01T06:26:35.984Z,5.63
2018-02-01T06:27:35.926Z,5.46
2018-02-01T06:28:35.916Z,5.63
2018-02-01T06:29:35.905Z,5.57
2018-02-01T06:30:35.908Z,5.57
2018-02-01T06:31:35.894Z,5.60
2018-02-01T06:32:35.886Z,5.60
2018-02-01T06:33:35.880Z,5.41
2018-02-01T06:34:35.897Z,5.55
2018-02-01T06:35:35.868Z,5.48
2018-02-01T06:36:35.855Z,5.45
2018-02-01T06:37:35.915Z,5.52
2018-02-01T06:38:35.852Z,5.63
2018-02-01T06:39:35.835Z,5.48
2018-02-01T06:40:35.828Z,5.57
2018-02-01T06:41:35.818Z,5.59
2018-02-01T06:42:35.815Z,5.67
2018-02-01T06:43:35.812Z,5.57
2018-02-01T06:44:35.802Z,5.52
2018-02-01T06:45:35.847Z,5.38
2018-02-01T06:46:35.784Z,5.49
2018-02-01T06:47:35.781Z,5.53
2018-02-01T06:48:35.770Z,5.52
2018-02-01T06:49:35.763Z,5.57
2018-02-01T06:50:35.756Z,5.64
2018-02-01T06:51:35.754Z,5.64
2018-02-01T06:52:35.749Z,5.48
2018-02-01T06:53:35.736Z,5.50
2018-02-01T06:54:35.728Z,5.43
2018-02-01T06:55:35.719Z,5.52
2018-02-01T06:56:35.719Z,5.59
2018-02-01T06:57:35.710Z,5.45
2018-02-01T06:58:35.700Z,5.32
2018-02-01T06:59:35.730Z,5.45
2018-02-01T07:00:35.684Z,5.35
2018-02-01T07:01:35.693Z,5.31
2018-02-01T07:02:35.675Z,5.28
2018-02-01T07:03:35.666Z,5.14
2018-02-01T07:04:35.656Z,5.12
2018-02-01T07:05:35.652Z,5.16
2018-02-01T07:06:35.648Z,5.28
2018-02-01T07:07:35.642Z,5.27
2018-02-01T07:08:35.634Z,5.27
2018-02-01T07:09:35.621Z,5.28
2018-02-01T07:10:35.615Z,5.27
2018-02-01T07:11:35.611Z,5.23
2018-02-01T07:12:35.605Z,5.35
2018-02-01T07:13:35.599Z,5.31
2018-02-01T07:14:37.510Z,5.32
2018-02-01T07:15:35.583Z,5.09
2018-02-01T07:16:35.579Z,4.98
2018-02-01T07:17:35.572Z,4.95
2018-02-01T07:18:35.560Z,5.04
2018-02-01T07:19:35.554Z,5.10
2018-02-01T07:20:35.543Z,5.02
2018-02-01T07:21:35.543Z,5.13
2018-02-01T07:22:35.532Z,4.94
2018-02-01T07:23:35.524Z,5.07
2018-02-01T07:24:35.515Z,5.07
2018-02-01T07:25:35.508Z,5.20
2018-02-01T07:26:35.501Z,5.27
2018-02-01T07:27:35.520Z,5.17
2018-02-01T07:28:35.487Z,5.04
2018-02-01T07:29:35.486Z,5.13
2018-02-01T07:30:35.473Z,5.13
2018-02-01T07:31:35.481Z,4.69
2018-02-01T07:32:35.475Z,4.83
2018-02-01T07:33:35.451Z,4.83
2018-02-01T07:34:35.447Z,4.80
2018-02-01T07:35:35.449Z,4.94
2018-02-01T07:36:35.431Z,4.98
2018-02-01T07:37:35.424Z,4.98
2018-02-01T07:38:35.418Z,5.10
2018-02-01T07:39:35.407Z,4.98
2018-02-01T07:40:35.404Z,5.07
2018-02-01T07:41:35.395Z,5.01
2018-02-01T07:42:35.390Z,5.13
2018-02-01T07:43:35.380Z,4.99
2018-02-01T07:44:35.369Z,4.67
2018-02-01T07:45:35.366Z,4.86
2018-02-01T07:46:35.358Z,5.12
2018-02-01T07:47:35.350Z,4.92
2018-02-01T07:48:35.344Z,5.14
2018-02-01T07:49:35.337Z,4.99
2018-02-01T07:50:35.329Z,4.92
2018-02-01T07:51:35.321Z,4.94
2018-02-01T07:52:35.314Z,4.95
2018-02-01T07:53:35.309Z,4.94
2018-02-01T07:54:35.299Z,5.05
2018-02-01T07:55:35.295Z,5.04
2018-02-01T07:56:35.297Z,5.02
2018-02-01T07:57:35.277Z,4.80
2018-02-01T07:58:35.272Z,4.92
2018-02-01T07:59:35.261Z,4.95
2018-02-01T08:00:35.254Z,4.96
2018-02-01T08:01:35.263Z,4.96
2018-02-01T08:02:35.240Z,4.86
2018-02-01T08:03:35.231Z,4.59
2018-02-01T08:04:35.233Z,4.77
2018-02-01T08:05:35.219Z,4.92
2018-02-01T08:06:35.208Z,4.98
2018-02-01T08:07:35.244Z,4.95
2018-02-01T08:08:35.193Z,4.98
2018-02-01T08:09:35.183Z,5.07
2018-02-01T08:10:35.175Z,4.96
2018-02-01T08:11:35.179Z,4.99
2018-02-01T08:12:35.164Z,5.10
2018-02-01T08:13:35.154Z,5.07
2018-02-01T08:14:35.147Z,4.94
2018-02-01T08:15:35.141Z,5.09
2018-02-01T08:16:35.141Z,4.98
2018-02-01T08:17:35.125Z,4.80
2018-02-01T08:18:35.117Z,4.98
2018-02-01T08:19:35.195Z,4.98
2018-02-01T08:20:35.132Z,4.98
2018-02-01T08:21:35.099Z,5.13
2018-02-01T08:22:35.089Z,5.10
2018-02-01T08:23:35.080Z,5.23
2018-02-01T08:24:35.072Z,5.13
2018-02-01T08:25:35.067Z,5.12
2018-02-01T08:26:35.055Z,5.19
2018-02-01T08:27:35.059Z,5.13
2018-02-01T08:28:35.041Z,5.12
2018-02-01T08:29:35.035Z,5.16
2018-02-01T08:30:35.027Z,5.13
2018-02-01T08:31:36.522Z,5.04
2018-02-01T08:32:35.016Z,5.14
2018-02-01T08:33:35.008Z,5.05
2018-02-01T08:34:34.999Z,5.09
2018-02-01T08:35:34.990Z,5.05
2018-02-01T08:36:34.982Z,5.10
2018-02-01T08:37:34.975Z,5.04
2018-02-01T08:38:34.971Z,5.05
2018-02-01T08:39:34.995Z,5.02
2018-02-01T08:40:34.953Z,5.02
2018-02-01T08:41:34.944Z,5.13
2018-02-01T08:42:34.940Z,5.16
2018-02-01T08:43:34.930Z,4.99
2018-02-01T08:44:34.923Z,4.99
2018-02-01T08:45:34.915Z,5.02
2018-02-01T08:46:34.908Z,5.12
2018-02-01T08:47:43.657Z,5.04
2018-02-01T08:49:28.480Z,5.17
2018-02-01T08:50:28.340Z,5.25
2018-02-01T08:51:36.950Z,5.05
2018-02-01T08:53:21.917Z,5.22
2018-02-01T08:54:21.706Z,5.30
2018-02-01T08:55:30.411Z,5.31
2018-02-01T08:57:24.194Z,5.45
2018-02-01T08:58:15.232Z,5.50
2018-02-01T08:59:15.037Z,5.48
2018-02-01T09:00:14.996Z,5.59
2018-02-01T09:01:15.089Z,5.53
2018-02-01T09:02:14.970Z,5.57
2018-02-01T09:03:14.961Z,5.63
2018-02-01T09:04:14.960Z,5.46
2018-02-01T09:05:14.948Z,5.52
2018-02-01T09:07:45.106Z,5.56
2018-02-01T09:08:44.796Z,5.48
2018-02-01T09:10:29.397Z,5.63
2018-02-01T09:11:29.523Z,5.53
2018-02-01T09:12:29.400Z,5.40
2018-02-01T09:13:29.398Z,5.31
2018-02-01T09:14:29.450Z,5.38
2018-02-01T09:15:29.370Z,5.48
2018-02-01T09:16:29.301Z,5.59
2018-02-01T09:17:29.293Z,5.67
2018-02-01T09:18:29.286Z,5.71
2018-02-01T09:19:29.277Z,5.56
2018-02-01T09:20:29.270Z,5.70
2018-02-01T09:21:29.260Z,5.55
2018-02-01T09:22:29.257Z,5.52
2018-02-01T09:23:29.247Z,5.56
2018-02-01T09:24:29.239Z,5.56
2018-02-01T09:25:29.232Z,5.43
2018-02-01T09:26:29.227Z,5.53
2018-02-01T09:27:29.218Z,5.57
2018-02-01T09:28:37.958Z,5.71
2018-02-01T09:30:23.038Z,5.86
2018-02-01T09:31:22.616Z,5.73
2018-02-01T09:32:22.653Z,5.91
2018-02-01T09:33:22.563Z,5.91
2018-02-01T09:34:22.552Z,5.88
2018-02-01T09:35:22.553Z,5.89
2018-02-01T09:36:22.539Z,5.95
2018-02-01T09:37:22.539Z,5.88
2018-02-01T09:38:22.532Z,5.98
2018-02-01T09:39:22.521Z,5.91
2018-02-01T09:40:22.514Z,5.89
2018-02-01T09:41:22.507Z,6.01
2018-02-01T09:42:22.498Z,5.78
2018-02-01T09:43:22.492Z,5.77
2018-02-01T09:44:22.485Z,5.70
2018-02-01T09:45:22.522Z,5.70
2018-02-01T09:46:22.469Z,5.66
2018-02-01T09:47:22.468Z,5.68
2018-02-01T09:48:22.455Z,5.67
2018-02-01T09:49:22.445Z,5.60
2018-02-01T09:50:22.443Z,5.66
2018-02-01T09:51:22.433Z,5.53
2018-02-01T09:52:22.425Z,5.57
2018-02-01T09:53:22.416Z,5.55
2018-02-01T09:54:22.413Z,5.60
2018-02-01T09:55:22.404Z,5.48
2018-02-01T09:56:22.395Z,5.64
2018-02-01T09:57:22.391Z,5.68
2018-02-01T09:58:22.382Z,5.59
2018-02-01T09:59:22.376Z,5.63
2018-02-01T10:00:22.424Z,5.56
2018-02-01T10:01:22.360Z,5.56
2018-02-01T10:02:22.352Z,5.63
2018-02-01T10:03:22.345Z,5.55
2018-02-01T10:04:22.335Z,5.67
2018-02-01T10:05:22.330Z,5.74
2018-02-01T10:06:22.327Z,5.68
2018-02-01T10:07:22.356Z,5.63
2018-02-01T10:08:22.310Z,5.60
2018-02-01T10:09:22.304Z,5.67
2018-02-01T10:10:22.293Z,5.68
2018-02-01T10:11:22.331Z,5.71
2018-02-01T10:12:22.284Z,5.82
2018-02-01T10:13:22.273Z,5.95
2018-02-01T10:14:22.271Z,5.92
2018-02-01T10:15:22.256Z,5.83
2018-02-01T10:16:22.252Z,5.73
2018-02-01T10:17:22.241Z,5.96
2018-02-01T10:18:22.236Z,6.01
2018-02-01T10:19:22.230Z,5.91
2018-02-01T10:20:22.225Z,5.74
2018-02-01T10:21:22.215Z,5.83
2018-02-01T10:22:22.208Z,5.86
2018-02-01T10:23:22.203Z,6.04
2018-02-01T10:24:22.193Z,5.98
2018-02-01T10:25:22.186Z,6.22
2018-02-01T10:26:22.177Z,6.14
2018-02-01T10:27:22.186Z,6.10
2018-02-01T10:28:22.180Z,6.01
2018-02-01T10:29:22.159Z,6.11
2018-02-01T10:30:22.154Z,5.88
2018-02-01T10:31:22.149Z,6.16
2018-02-01T10:32:22.137Z,6.19
2018-02-01T10:33:22.130Z,6.14
2018-02-01T10:34:22.121Z,6.04
2018-02-01T10:35:22.117Z,6.03
2018-02-01T10:36:22.150Z,5.96
2018-02-01T10:37:22.102Z,5.92
2018-02-01T10:38:22.100Z,5.68
2018-02-01T10:39:22.088Z,5.70
2018-02-01T10:40:23.642Z,5.78
2018-02-01T10:41:22.071Z,5.75
2018-02-01T10:42:22.067Z,5.77
2018-02-01T10:43:30.899Z,5.63
2018-02-01T10:45:15.522Z,5.70
2018-02-01T10:46:24.122Z,5.77
2018-02-01T10:48:08.837Z,5.67
2018-02-01T10:49:08.848Z,5.67
2018-02-01T10:50:08.856Z,5.64
2018-02-01T10:51:08.862Z,5.67
2018-02-01T10:52:08.788Z,5.56
2018-02-01T10:53:08.779Z,5.63
2018-02-01T10:54:08.775Z,5.71
2018-02-01T10:55:08.765Z,5.74
2018-02-01T10:56:08.755Z,5.78
2018-02-01T10:57:08.750Z,5.78
2018-02-01T10:58:08.746Z,5.81
2018-02-01T10:59:08.740Z,5.86
2018-02-01T11:00:08.759Z,5.98
2018-02-01T11:01:08.722Z,5.95
2018-02-01T11:02:08.720Z,6.07
2018-02-01T11:03:08.709Z,6.04
2018-02-01T11:04:08.698Z,6.14
2018-02-01T11:05:08.696Z,6.19
2018-02-01T11:06:08.690Z,6.11
2018-02-01T11:07:08.679Z,6.43
2018-02-01T11:08:08.675Z,6.53
2018-02-01T11:09:08.664Z,6.41
2018-02-01T11:10:08.656Z,6.40
2018-02-01T11:11:08.652Z,6.36
2018-02-01T11:12:08.652Z,6.32
2018-02-01T11:13:08.642Z,6.41
2018-02-01T11:14:08.632Z,6.28
2018-02-01T11:15:08.635Z,6.32
2018-02-01T11:16:08.637Z,6.11
2018-02-01T11:17:08.605Z,6.18
2018-02-01T11:18:08.599Z,6.30
2018-02-01T11:19:08.597Z,6.33
2018-02-01T11:20:08.600Z,6.47
2018-02-01T11:21:08.583Z,6.43
2018-02-01T11:22:08.571Z,6.48
2018-02-01T11:23:08.562Z,6.53
2018-02-01T11:24:08.563Z,6.54
2018-02-01T11:25:08.550Z,6.61
2018-02-01T11:26:08.544Z,6.63
2018-02-01T11:27:08.538Z,6.68
2018-02-01T11:28:08.527Z,6.69
2018-02-01T11:29:08.517Z,6.63
2018-02-01T11:30:08.515Z,6.65
2018-02-01T11:31:08.509Z,6.56
2018-02-01T11:32:08.497Z,6.50
2018-02-01T11:33:08.498Z,6.54
2018-02-01T11:34:08.533Z,6.41
2018-02-01T11:35:08.479Z,6.53
2018-02-01T11:36:08.472Z,6.65
2018-02-01T11:37:08.466Z,6.89
2018-02-01T11:38:08.457Z,6.83
2018-02-01T11:39:08.447Z,6.90
2018-02-01T11:40:08.443Z,6.83
2018-02-01T11:41:08.437Z,6.79
2018-02-01T11:42:08.431Z,7.02
2018-02-01T11:43:08.419Z,6.83
2018-02-01T11:44:08.412Z,6.91
2018-02-01T11:45:08.407Z,6.94
2018-02-01T11:46:08.398Z,6.83
2018-02-01T11:47:08.392Z,6.89
2018-02-01T11:48:08.385Z,6.83
2018-02-01T11:49:08.375Z,6.65
2018-02-01T11:50:08.373Z,6.62
2018-02-01T11:51:08.364Z,6.89
2018-02-01T11:52:08.356Z,6.90
2018-02-01T11:53:08.351Z,6.79
2018-02-01T11:54:08.344Z,6.90
2018-02-01T11:55:08.376Z,6.83
2018-02-01T11:56:08.330Z,6.66
2018-02-01T11:57:08.321Z,6.69
2018-02-01T11:58:08.343Z,6.95
2018-02-01T11:59:08.308Z,6.89
2018-02-01T12:00:08.302Z,6.71
2018-02-01T12:01:08.297Z,6.69
2018-02-01T12:02:08.289Z,6.90
2018-02-01T12:03:08.281Z,6.80
2018-02-01T12:04:08.276Z,6.99
2018-02-01T12:05:08.267Z,7.09
2018-02-01T12:06:08.262Z,7.16
2018-02-01T12:07:08.254Z,7.09
2018-02-01T12:08:08.247Z,7.17
2018-02-01T12:09:08.244Z,7.24
2018-02-01T12:10:08.234Z,7.32
2018-02-01T12:11:08.277Z,6.98
2018-02-01T12:12:08.221Z,6.90
2018-02-01T12:13:08.214Z,7.02
2018-02-01T12:14:08.209Z,6.99
2018-02-01T12:15:08.200Z,6.94
2018-02-01T12:16:08.192Z,7.01
2018-02-01T12:17:08.188Z,7.02
2018-02-01T12:18:08.194Z,7.09
2018-02-01T12:19:08.179Z,7.34
2018-02-01T12:20:08.167Z,7.23
2018-02-01T12:21:08.159Z,7.32
2018-02-01T12:22:08.156Z,7.15
2018-02-01T12:23:08.145Z,7.27
2018-02-01T12:24:08.139Z,7.29
2018-02-01T12:25:08.135Z,7.38
2018-02-01T12:26:08.131Z,7.44
2018-02-01T12:27:08.130Z,7.56
2018-02-01T12:28:08.199Z,7.72
2018-02-01T12:29:08.265Z,7.77
2018-02-01T12:30:08.103Z,7.84
2018-02-01T12:31:08.093Z,7.89
2018-02-01T12:32:08.090Z,7.93
2018-02-01T12:33:08.084Z,8.10
2018-02-01T12:34:08.076Z,8.07
2018-02-01T12:35:08.081Z,7.93
2018-02-01T12:36:08.067Z,7.77
2018-02-01T12:37:08.057Z,7.44
2018-02-01T12:38:08.054Z,7.40
2018-02-01T12:39:08.109Z,7.49
2018-02-01T12:40:08.037Z,7.58
2018-02-01T12:41:08.034Z,7.45
2018-02-01T12:42:08.027Z,7.45
2018-02-01T12:43:08.023Z,7.52
2018-02-01T12:44:08.011Z,7.60
2018-02-01T12:45:08.011Z,7.66
2018-02-01T12:46:07.997Z,7.66
2018-02-01T12:47:08.006Z,7.66
2018-02-01T12:48:07.985Z,7.66
2018-02-01T12:49:07.979Z,7.58
2018-02-01T12:50:07.973Z,7.24
2018-02-01T12:51:07.972Z,7.37
2018-02-01T12:52:07.961Z,7.40
2018-02-01T12:53:07.954Z,7.31
2018-02-01T12:54:07.953Z,7.35
2018-02-01T12:55:07.948Z,7.34
2018-02-01T12:56:07.943Z,7.40
2018-02-01T12:57:07.929Z,7.52
2018-02-01T12:58:07.923Z,7.60
2018-02-01T12:59:07.916Z,7.71
2018-02-01T13:00:07.915Z,7.50
2018-02-01T13:01:07.903Z,7.50
2018-02-01T13:02:07.900Z,7.50
2018-02-01T13:03:07.891Z,7.49
2018-02-01T13:04:07.888Z,7.31
2018-02-01T13:05:07.880Z,7.20
2018-02-01T13:06:07.886Z,7.38
2018-02-01T13:07:07.871Z,7.38
2018-02-01T13:08:07.860Z,7.45
2018-02-01T13:09:07.853Z,7.38
2018-02-01T13:10:07.845Z,7.40
2018-02-01T13:11:07.932Z,7.37
2018-02-01T13:12:07.858Z,7.34
2018-02-01T13:13:07.835Z,7.45
2018-02-01T13:14:07.877Z,7.44
2018-02-01T13:15:07.824Z,7.58
2018-02-01T13:16:07.808Z,7.29
2018-02-01T13:17:07.801Z,7.45
2018-02-01T13:18:07.799Z,7.60
2018-02-01T13:19:07.793Z,7.62
2018-02-01T13:20:07.788Z,7.27
2018-02-01T13:21:07.777Z,7.38
2018-02-01T13:22:07.775Z,7.34
2018-02-01T13:23:07.765Z,7.45
2018-02-01T13:24:07.765Z,7.49
2018-02-01T13:25:07.754Z,7.59
2018-02-01T13:26:07.754Z,7.44
2018-02-01T13:27:07.774Z,7.55
2018-02-01T13:28:07.741Z,7.55
2018-02-01T13:29:07.728Z,7.62
2018-02-01T13:30:07.733Z,7.59
2018-02-01T13:31:07.714Z,7.60
2018-02-01T13:32:07.710Z,7.45
2018-02-01T13:33:07.702Z,7.45
2018-02-01T13:34:07.699Z,7.58
2018-02-01T13:35:07.743Z,7.62
2018-02-01T13:36:07.694Z,7.45
2018-02-01T13:37:07.679Z,7.38
2018-02-01T13:38:07.673Z,7.24
2018-02-01T13:39:16.306Z,7.47
2018-02-01T13:41:01.115Z,7.55
2018-02-01T13:42:01.052Z,7.29
2018-02-01T13:43:09.727Z,7.45
2018-02-01T13:44:54.455Z,7.47
2018-02-01T13:45:54.423Z,7.27
2018-02-01T13:46:54.402Z,7.31
2018-02-01T13:47:54.403Z,7.31
2018-02-01T13:48:54.419Z,7.22
2018-02-01T13:49:54.381Z,7.31
2018-02-01T13:50:54.376Z,7.31
2018-02-01T13:51:54.370Z,7.49
2018-02-01T13:52:54.375Z,7.42
2018-02-01T13:53:54.365Z,7.34
2018-02-01T13:54:54.352Z,7.08
2018-02-01T13:55:54.344Z,6.99
2018-02-01T13:56:54.338Z,7.13
2018-02-01T13:57:54.330Z,7.34